sensor_id;sensor_type;location;lat;lon;timestamp;pressure;altitude;pressure_sealevel;temperature;humidity
18755;BME280;35061;47.664;9.166;2024-03-08T00:00:16;101304.02;;;4.90;92.69
18755;BME280;35061;47.664;9.166;2024-03-08T00:02:47;101294.27;;;4.91;93.00
18755;BME280;35061;47.664;9.166;2024-03-08T00:05:15;101291.79;;;4.93;93.15
18755;BME280;35061;47.664;9.166;2024-03-08T00:07:43;101288.42;;;4.98;93.33
18755;BME280;35061;47.664;9.166;2024-03-08T00:10:12;101293.30;;;4.98;92.55
18755;BME280;35061;47.664;9.166;2024-03-08T00:12:45;101290.91;;;4.96;92.95
18755;BME280;35061;47.664;9.166;2024-03-08T00:15:15;101294.54;;;4.97;92.41
18755;BME280;35061;47.664;9.166;2024-03-08T00:17:46;101295.36;;;4.97;92.44
18755;BME280;35061;47.664;9.166;2024-03-08T00:20:15;101294.44;;;5.00;92.52
18755;BME280;35061;47.664;9.166;2024-03-08T00:22:46;101292.87;;;4.99;91.82
18755;BME280;35061;47.664;9.166;2024-03-08T00:25:14;101283.52;;;4.99;92.17
18755;BME280;35061;47.664;9.166;2024-03-08T00:27:42;101285.58;;;4.98;91.91
18755;BME280;35061;47.664;9.166;2024-03-08T00:30:11;101284.89;;;4.94;91.82
18755;BME280;35061;47.664;9.166;2024-03-08T00:32:41;101278.74;;;4.96;91.91
18755;BME280;35061;47.664;9.166;2024-03-08T00:35:09;101282.47;;;4.93;91.60
18755;BME280;35061;47.664;9.166;2024-03-08T00:37:37;101280.54;;;4.89;91.16
18755;BME280;35061;47.664;9.166;2024-03-08T00:40:05;101278.91;;;4.88;91.50
18755;BME280;35061;47.664;9.166;2024-03-08T00:42:34;101270.41;;;4.88;91.48
18755;BME280;35061;47.664;9.166;2024-03-08T00:45:03;101279.46;;;4.83;91.45
18755;BME280;35061;47.664;9.166;2024-03-08T00:47:31;101266.94;;;4.81;91.50
18755;BME280;35061;47.664;9.166;2024-03-08T00:49:59;101270.66;;;4.78;91.35
18755;BME280;35061;47.664;9.166;2024-03-08T00:52:27;101264.20;;;4.77;91.45
18755;BME280;35061;47.664;9.166;2024-03-08T00:54:55;101259.06;;;4.72;91.09
18755;BME280;35061;47.664;9.166;2024-03-08T00:57:23;101256.73;;;4.67;90.55
18755;BME280;35061;47.664;9.166;2024-03-08T00:59:51;101261.71;;;4.63;91.01
18755;BME280;35061;47.664;9.166;2024-03-08T01:02:20;101256.90;;;4.59;91.16
18755;BME280;35061;47.664;9.166;2024-03-08T01:04:49;101262.59;;;4.59;91.05
18755;BME280;35061;47.664;9.166;2024-03-08T01:07:18;101259.81;;;4.56;90.67
18755;BME280;35061;47.664;9.166;2024-03-08T01:09:45;101252.98;;;4.53;90.55
18755;BME280;35061;47.664;9.166;2024-03-08T01:12:13;101256.70;;;4.50;90.73
18755;BME280;35061;47.664;9.166;2024-03-08T01:14:42;101253.89;;;4.50;90.82
18755;BME280;35061;47.664;9.166;2024-03-08T01:17:11;101254.64;;;4.51;90.96
18755;BME280;35061;47.664;9.166;2024-03-08T01:19:39;101252.91;;;4.57;91.12
18755;BME280;35061;47.664;9.166;2024-03-08T01:22:07;101249.70;;;4.55;90.46
18755;BME280;35061;47.664;9.166;2024-03-08T01:24:35;101238.88;;;4.50;90.09
18755;BME280;35061;47.664;9.166;2024-03-08T01:27:03;101232.51;;;4.45;90.14
18755;BME280;35061;47.664;9.166;2024-03-08T01:29:31;101232.15;;;4.43;90.07
18755;BME280;35061;47.664;9.166;2024-03-08T01:32:00;101228.98;;;4.41;90.10
18755;BME280;35061;47.664;9.166;2024-03-08T01:34:29;101229.40;;;4.40;90.23
18755;BME280;35061;47.664;9.166;2024-03-08T01:36:57;101227.80;;;4.39;90.12
18755;BME280;35061;47.664;9.166;2024-03-08T01:39:25;101226.20;;;4.38;90.14
18755;BME280;35061;47.664;9.166;2024-03-08T01:41:54;101222.14;;;4.39;90.13
18755;BME280;35061;47.664;9.166;2024-03-08T01:44:22;101218.84;;;4.40;89.85
18755;BME280;35061;47.664;9.166;2024-03-08T01:46:52;101220.18;;;4.36;89.57
18755;BME280;35061;47.664;9.166;2024-03-08T01:49:21;101210.86;;;4.35;89.63
18755;BME280;35061;47.664;9.166;2024-03-08T01:51:50;101218.22;;;4.32;89.77
18755;BME280;35061;47.664;9.166;2024-03-08T01:54:19;101209.68;;;4.32;89.58
18755;BME280;35061;47.664;9.166;2024-03-08T01:56:47;101206.09;;;4.32;89.87
18755;BME280;35061;47.664;9.166;2024-03-08T01:59:16;101198.27;;;4.36;89.96
18755;BME280;35061;47.664;9.166;2024-03-08T02:01:45;101197.02;;;4.37;89.81
18755;BME280;35061;47.664;9.166;2024-03-08T02:04:13;101188.16;;;4.35;89.42
18755;BME280;35061;47.664;9.166;2024-03-08T02:06:41;101192.61;;;4.36;89.65
18755;BME280;35061;47.664;9.166;2024-03-08T02:09:09;101187.28;;;4.38;89.77
18755;BME280;35061;47.664;9.166;2024-03-08T02:11:40;101178.35;;;4.40;89.69
18755;BME280;35061;47.664;9.166;2024-03-08T02:14:09;101177.90;;;4.41;89.63
18755;BME280;35061;47.664;9.166;2024-03-08T02:16:39;101181.88;;;4.44;89.65
18755;BME280;35061;47.664;9.166;2024-03-08T02:19:07;101177.44;;;4.43;89.62
18755;BME280;35061;47.664;9.166;2024-03-08T02:21:37;101174.62;;;4.43;89.20
18755;BME280;35061;47.664;9.166;2024-03-08T02:24:06;101175.87;;;4.42;89.18
18755;BME280;35061;47.664;9.166;2024-03-08T02:26:34;101176.20;;;4.44;89.43
18755;BME280;35061;47.664;9.166;2024-03-08T02:29:02;101178.68;;;4.42;89.23
18755;BME280;35061;47.664;9.166;2024-03-08T02:31:30;101174.70;;;4.39;88.92
18755;BME280;35061;47.664;9.166;2024-03-08T02:33:58;101173.91;;;4.39;89.15
18755;BME280;35061;47.664;9.166;2024-03-08T02:36:27;101170.28;;;4.38;89.28
18755;BME280;35061;47.664;9.166;2024-03-08T02:38:55;101162.66;;;4.35;88.77
18755;BME280;35061;47.664;9.166;2024-03-08T02:41:23;101163.97;;;4.30;88.50
18755;BME280;35061;47.664;9.166;2024-03-08T02:43:51;101164.69;;;4.35;89.19
18755;BME280;35061;47.664;9.166;2024-03-08T02:46:19;101153.34;;;4.35;88.89
18755;BME280;35061;47.664;9.166;2024-03-08T02:48:47;101153.44;;;4.31;88.97
18755;BME280;35061;47.664;9.166;2024-03-08T02:51:15;101161.05;;;4.34;88.90
18755;BME280;35061;47.664;9.166;2024-03-08T02:53:43;101157.85;;;4.32;89.04
18755;BME280;35061;47.664;9.166;2024-03-08T02:56:11;101161.58;;;4.29;88.80
18755;BME280;35061;47.664;9.166;2024-03-08T02:58:43;101155.63;;;4.23;88.60
18755;BME280;35061;47.664;9.166;2024-03-08T03:01:11;101156.87;;;4.22;88.37
18755;BME280;35061;47.664;9.166;2024-03-08T03:03:39;101145.79;;;4.11;88.60
18755;BME280;35061;47.664;9.166;2024-03-08T03:06:07;101142.88;;;4.15;88.50
18755;BME280;35061;47.664;9.166;2024-03-08T03:08:35;101138.79;;;4.16;88.91
18755;BME280;35061;47.664;9.166;2024-03-08T03:11:03;101138.33;;;4.17;89.10
18755;BME280;35061;47.664;9.166;2024-03-08T03:13:31;101138.72;;;4.19;88.97
18755;BME280;35061;47.664;9.166;2024-03-08T03:15:59;101141.17;;;4.17;88.22
18755;BME280;35061;47.664;9.166;2024-03-08T03:18:27;101129.93;;;4.14;88.89
18755;BME280;35061;47.664;9.166;2024-03-08T03:20:55;101127.90;;;4.14;88.75
18755;BME280;35061;47.664;9.166;2024-03-08T03:23:24;101125.48;;;4.13;88.54
18755;BME280;35061;47.664;9.166;2024-03-08T03:25:54;101137.45;;;4.04;88.19
18755;BME280;35061;47.664;9.166;2024-03-08T03:28:25;101124.66;;;3.96;88.58
18755;BME280;35061;47.664;9.166;2024-03-08T03:30:52;101126.52;;;4.02;88.79
18755;BME280;35061;47.664;9.166;2024-03-08T03:33:20;101125.55;;;3.93;88.06
18755;BME280;35061;47.664;9.166;2024-03-08T03:35:49;101121.49;;;3.94;88.66
18755;BME280;35061;47.664;9.166;2024-03-08T03:38:19;101120.70;;;3.93;88.85
18755;BME280;35061;47.664;9.166;2024-03-08T03:40:48;101120.57;;;3.97;89.02
18755;BME280;35061;47.664;9.166;2024-03-08T03:43:20;101119.01;;;3.96;88.82
18755;BME280;35061;47.664;9.166;2024-03-08T03:45:47;101121.39;;;3.97;88.93
18755;BME280;35061;47.664;9.166;2024-03-08T03:48:16;101115.18;;;4.02;88.99
18755;BME280;35061;47.664;9.166;2024-03-08T03:50:44;101116.42;;;4.01;88.83
18755;BME280;35061;47.664;9.166;2024-03-08T03:53:12;101113.61;;;4.01;88.91
18755;BME280;35061;47.664;9.166;2024-03-08T03:55:41;101115.63;;;4.01;88.67
18755;BME280;35061;47.664;9.166;2024-03-08T03:58:09;101110.05;;;3.97;88.70
18755;BME280;35061;47.664;9.166;2024-03-08T04:00:39;101112.98;;;3.94;88.63
18755;BME280;35061;47.664;9.166;2024-03-08T04:03:08;101108.61;;;3.89;88.53
18755;BME280;35061;47.664;9.166;2024-03-08T04:05:36;101107.85;;;3.88;89.26
18755;BME280;35061;47.664;9.166;2024-03-08T04:08:04;101109.06;;;3.87;88.98
18755;BME280;35061;47.664;9.166;2024-03-08T04:10:34;101108.28;;;3.87;88.87
18755;BME280;35061;47.664;9.166;2024-03-08T04:13:02;101099.77;;;3.87;88.79
18755;BME280;35061;47.664;9.166;2024-03-08T04:15:31;101099.05;;;3.83;88.85
18755;BME280;35061;47.664;9.166;2024-03-08T04:17:59;101106.32;;;3.84;88.99
18755;BME280;35061;47.664;9.166;2024-03-08T04:20:28;101103.51;;;3.84;89.03
18755;BME280;35061;47.664;9.166;2024-03-08T04:22:56;101096.38;;;3.75;88.77
18755;BME280;35061;47.664;9.166;2024-03-08T04:25:24;101100.10;;;3.72;89.13
18755;BME280;35061;47.664;9.166;2024-03-08T04:27:52;101099.65;;;3.74;89.14
18755;BME280;35061;47.664;9.166;2024-03-08T04:30:20;101091.14;;;3.74;89.42
18755;BME280;35061;47.664;9.166;2024-03-08T04:32:50;101087.41;;;3.77;89.42
18755;BME280;35061;47.664;9.166;2024-03-08T04:35:18;101093.01;;;3.81;89.15
18755;BME280;35061;47.664;9.166;2024-03-08T04:37:47;101086.99;;;3.79;89.25
18755;BME280;35061;47.664;9.166;2024-03-08T04:40:15;101091.77;;;3.82;89.48
18755;BME280;35061;47.664;9.166;2024-03-08T04:42:43;101093.01;;;3.81;89.31
18755;BME280;35061;47.664;9.166;2024-03-08T04:45:11;101092.65;;;3.79;89.40
18755;BME280;35061;47.664;9.166;2024-03-08T04:47:40;101090.26;;;3.77;89.32
18755;BME280;35061;47.664;9.166;2024-03-08T04:50:08;101087.87;;;3.75;89.75
18755;BME280;35061;47.664;9.166;2024-03-08T04:52:36;101089.48;;;3.76;89.66
18755;BME280;35061;47.664;9.166;2024-03-08T04:55:05;101092.32;;;3.76;89.72
18755;BME280;35061;47.664;9.166;2024-03-08T04:57:33;101086.20;;;3.78;89.79
18755;BME280;35061;47.664;9.166;2024-03-08T05:00:03;101090.66;;;3.79;89.75
18755;BME280;35061;47.664;9.166;2024-03-08T05:02:35;101088.23;;;3.77;89.57
18755;BME280;35061;47.664;9.166;2024-03-08T05:05:05;101089.12;;;3.74;89.54
18755;BME280;35061;47.664;9.166;2024-03-08T05:07:34;101089.48;;;3.76;89.88
18755;BME280;35061;47.664;9.166;2024-03-08T05:10:03;101094.71;;;3.78;89.98
18755;BME280;35061;47.664;9.166;2024-03-08T05:12:31;101079.38;;;3.75;89.28
18755;BME280;35061;47.664;9.166;2024-03-08T05:14:59;101084.31;;;3.71;89.63
18755;BME280;35061;47.664;9.166;2024-03-08T05:17:28;101078.29;;;3.69;89.67
18755;BME280;35061;47.664;9.166;2024-03-08T05:19:58;101071.91;;;3.65;89.82
18755;BME280;35061;47.664;9.166;2024-03-08T05:22:26;101070.31;;;3.64;89.84
18755;BME280;35061;47.664;9.166;2024-03-08T05:24:54;101078.81;;;3.64;89.85
18755;BME280;35061;47.664;9.166;2024-03-08T05:27:21;101073.95;;;3.65;89.81
18755;BME280;35061;47.664;9.166;2024-03-08T05:29:49;101075.55;;;3.66;90.11
18755;BME280;35061;47.664;9.166;2024-03-08T05:32:17;101075.12;;;3.67;90.23
18755;BME280;35061;47.664;9.166;2024-03-08T05:34:45;101075.45;;;3.69;90.00
18755;BME280;35061;47.664;9.166;2024-03-08T05:37:13;101066.09;;;3.72;90.20
18755;BME280;35061;47.664;9.166;2024-03-08T05:39:41;101068.84;;;3.76;90.18
18755;BME280;35061;47.664;9.166;2024-03-08T05:42:09;101064.13;;;3.69;89.69
18755;BME280;35061;47.664;9.166;2024-03-08T05:44:37;101064.30;;;3.62;89.57
18755;BME280;35061;47.664;9.166;2024-03-08T05:47:06;101061.55;;;3.58;89.74
18755;BME280;35061;47.664;9.166;2024-03-08T05:49:34;101061.62;;;3.55;89.94
18755;BME280;35061;47.664;9.166;2024-03-08T05:52:02;101057.63;;;3.52;90.00
18755;BME280;35061;47.664;9.166;2024-03-08T05:54:30;101056.84;;;3.52;90.12
18755;BME280;35061;47.664;9.166;2024-03-08T05:57:00;101064.10;;;3.53;90.12
18755;BME280;35061;47.664;9.166;2024-03-08T05:59:28;101059.59;;;3.55;90.20
18755;BME280;35061;47.664;9.166;2024-03-08T06:01:57;101064.10;;;3.53;90.18
18755;BME280;35061;47.664;9.166;2024-03-08T06:04:25;101066.12;;;3.52;90.54
18755;BME280;35061;47.664;9.166;2024-03-08T06:06:53;101062.34;;;3.59;90.64
18755;BME280;35061;47.664;9.166;2024-03-08T06:09:26;101060.60;;;3.65;90.44
18755;BME280;35061;47.664;9.166;2024-03-08T06:11:54;101062.59;;;3.65;90.22
18755;BME280;35061;47.664;9.166;2024-03-08T06:14:22;101064.66;;;3.64;90.52
18755;BME280;35061;47.664;9.166;2024-03-08T06:16:51;101065.38;;;3.68;90.66
18755;BME280;35061;47.664;9.166;2024-03-08T06:19:19;101058.02;;;3.71;90.30
18755;BME280;35061;47.664;9.166;2024-03-08T06:21:47;101066.20;;;3.69;90.21
18755;BME280;35061;47.664;9.166;2024-03-08T06:24:15;101070.31;;;3.64;90.03
18755;BME280;35061;47.664;9.166;2024-03-08T06:26:43;101068.29;;;3.65;90.25
18755;BME280;35061;47.664;9.166;2024-03-08T06:29:11;101069.43;;;3.67;90.39
18755;BME280;35061;47.664;9.166;2024-03-08T06:31:40;101065.02;;;3.66;90.29
18755;BME280;35061;47.664;9.166;2024-03-08T06:34:08;101065.44;;;3.65;90.30
18755;BME280;35061;47.664;9.166;2024-03-08T06:36:36;101067.86;;;3.66;90.39
18755;BME280;35061;47.664;9.166;2024-03-08T06:39:05;101072.63;;;3.69;90.34
18755;BME280;35061;47.664;9.166;2024-03-08T06:41:37;101064.49;;;3.71;90.38
18755;BME280;35061;47.664;9.166;2024-03-08T06:44:05;101063.71;;;3.71;90.43
18755;BME280;35061;47.664;9.166;2024-03-08T06:46:35;101062.04;;;3.73;90.28
18755;BME280;35061;47.664;9.166;2024-03-08T06:49:03;101062.89;;;3.70;90.20
18755;BME280;35061;47.664;9.166;2024-03-08T06:51:32;101063.77;;;3.67;90.36
18755;BME280;35061;47.664;9.166;2024-03-08T06:54:00;101063.35;;;3.69;90.34
18755;BME280;35061;47.664;9.166;2024-03-08T06:56:28;101058.02;;;3.71;90.25
18755;BME280;35061;47.664;9.166;2024-03-08T06:58:57;101059.26;;;3.70;90.47
18755;BME280;35061;47.664;9.166;2024-03-08T07:01:25;101060.05;;;3.70;90.50
18755;BME280;35061;47.664;9.166;2024-03-08T07:03:53;101064.59;;;3.68;90.37
18755;BME280;35061;47.664;9.166;2024-03-08T07:06:24;101065.02;;;3.66;90.68
18755;BME280;35061;47.664;9.166;2024-03-08T07:08:52;101065.38;;;3.68;90.65
18755;BME280;35061;47.664;9.166;2024-03-08T07:11:21;101072.63;;;3.69;90.55
18755;BME280;35061;47.664;9.166;2024-03-08T07:13:49;101067.93;;;3.62;90.37
18755;BME280;35061;47.664;9.166;2024-03-08T07:16:17;101064.82;;;3.57;90.80
18755;BME280;35061;47.664;9.166;2024-03-08T07:18:45;101068.45;;;3.57;90.84
18755;BME280;35061;47.664;9.166;2024-03-08T07:21:14;101065.64;;;3.57;91.00
18755;BME280;35061;47.664;9.166;2024-03-08T07:23:42;101056.68;;;3.59;90.71
18755;BME280;35061;47.664;9.166;2024-03-08T07:26:17;101062.27;;;3.62;90.79
18755;BME280;35061;47.664;9.166;2024-03-08T07:28:46;101069.53;;;3.63;90.78
18755;BME280;35061;47.664;9.166;2024-03-08T07:31:14;101062.59;;;3.65;90.74
18755;BME280;35061;47.664;9.166;2024-03-08T07:33:42;101067.44;;;3.68;90.61
18755;BME280;35061;47.664;9.166;2024-03-08T07:36:11;101064.13;;;3.69;90.73
18755;BME280;35061;47.664;9.166;2024-03-08T07:38:39;101057.59;;;3.72;91.06
18755;BME280;35061;47.664;9.166;2024-03-08T07:41:07;101054.65;;;3.76;90.60
18755;BME280;35061;47.664;9.166;2024-03-08T07:43:36;101052.55;;;3.80;90.79
18755;BME280;35061;47.664;9.166;2024-03-08T07:46:04;101046.84;;;3.84;90.61
18755;BME280;35061;47.664;9.166;2024-03-08T07:48:32;101048.77;;;3.87;90.46
18755;BME280;35061;47.664;9.166;2024-03-08T07:51:00;101047.52;;;3.88;90.57
18755;BME280;35061;47.664;9.166;2024-03-08T07:53:28;101054.36;;;3.90;90.41
18755;BME280;35061;47.664;9.166;2024-03-08T07:55:57;101052.75;;;3.89;90.26
18755;BME280;35061;47.664;9.166;2024-03-08T07:58:25;101052.30;;;3.91;90.99
18755;BME280;35061;47.664;9.166;2024-03-08T08:00:53;101039.91;;;4.01;91.02
18755;BME280;35061;47.664;9.166;2024-03-08T08:03:22;101031.86;;;4.00;91.35
18755;BME280;35061;47.664;9.166;2024-03-08T08:05:50;101037.16;;;3.98;90.58
18755;BME280;35061;47.664;9.166;2024-03-08T08:08:18;101045.07;;;4.07;90.85
18755;BME280;35061;47.664;9.166;2024-03-08T08:10:46;101038.92;;;4.08;90.40
18755;BME280;35061;47.664;9.166;2024-03-08T08:13:14;101050.10;;;4.15;90.89
18755;BME280;35061;47.664;9.166;2024-03-08T08:15:43;101048.77;;;4.20;90.48
18755;BME280;35061;47.664;9.166;2024-03-08T08:18:12;101034.51;;;4.24;90.78
18755;BME280;35061;47.664;9.166;2024-03-08T08:20:39;101040.10;;;4.27;90.60
18755;BME280;35061;47.664;9.166;2024-03-08T08:23:07;101040.46;;;4.29;90.48
18755;BME280;35061;47.664;9.166;2024-03-08T08:25:36;101035.85;;;4.36;90.44
18755;BME280;35061;47.664;9.166;2024-03-08T08:28:05;101035.39;;;4.37;90.28
18755;BME280;35061;47.664;9.166;2024-03-08T08:30:33;101033.36;;;4.38;90.18
18755;BME280;35061;47.664;9.166;2024-03-08T08:33:01;101032.12;;;4.39;89.95
18755;BME280;35061;47.664;9.166;2024-03-08T08:35:29;101031.20;;;4.42;90.04
18755;BME280;35061;47.664;9.166;2024-03-08T08:37:57;101032.45;;;4.41;89.76
18755;BME280;35061;47.664;9.166;2024-03-08T08:40:26;101027.67;;;4.38;nan
18755;BME280;35061;47.664;9.166;2024-03-08T08:42:55;101021.46;;;4.43;89.95
18755;BME280;35061;47.664;9.166;2024-03-08T08:45:26;101015.34;;;4.44;89.55
18755;BME280;35061;47.664;9.166;2024-03-08T08:47:54;101021.20;;;4.54;89.46
18755;BME280;35061;47.664;9.166;2024-03-08T08:50:23;101013.80;;;4.56;89.50
18755;BME280;35061;47.664;9.166;2024-03-08T08:52:51;101012.92;;;4.59;89.35
18755;BME280;35061;47.664;9.166;2024-03-08T08:55:20;101014.76;;;4.66;89.62
18755;BME280;35061;47.664;9.166;2024-03-08T08:57:54;101010.60;;;4.71;89.14
18755;BME280;35061;47.664;9.166;2024-03-08T09:00:23;101013.35;;;4.74;89.27
18755;BME280;35061;47.664;9.166;2024-03-08T09:02:54;101008.77;;;4.77;88.92
18755;BME280;35061;47.664;9.166;2024-03-08T09:05:25;101002.33;;;4.77;88.79
18755;BME280;35061;47.664;9.166;2024-03-08T09:07:54;100999.95;;;4.75;88.92
18755;BME280;35061;47.664;9.166;2024-03-08T09:10:23;100989.74;;;4.78;88.98
18755;BME280;35061;47.664;9.166;2024-03-08T09:12:56;100988.40;;;4.82;88.52
18755;BME280;35061;47.664;9.166;2024-03-08T09:15:24;100988.63;;;4.88;88.61
18755;BME280;35061;47.664;9.166;2024-03-08T09:17:56;100980.45;;;4.90;88.57
18755;BME280;35061;47.664;9.166;2024-03-08T09:20:24;100988.76;;;4.97;88.46
18755;BME280;35061;47.664;9.166;2024-03-08T09:22:52;100980.84;;;5.05;88.40
18755;BME280;35061;47.664;9.166;2024-03-08T09:25:21;100979.93;;;5.08;88.29
18755;BME280;35061;47.664;9.166;2024-03-08T09:27:50;100974.73;;;5.07;88.05
18755;BME280;35061;47.664;9.166;2024-03-08T09:30:18;100982.41;;;5.06;87.82
18755;BME280;35061;47.664;9.166;2024-03-08T09:32:46;100988.83;;;5.10;88.14
18755;BME280;35061;47.664;9.166;2024-03-08T09:35:14;100986.99;;;5.16;87.85
18755;BME280;35061;47.664;9.166;2024-03-08T09:37:42;100995.07;;;5.18;87.19
18755;BME280;35061;47.664;9.166;2024-03-08T09:40:11;100992.68;;;5.16;87.19
18755;BME280;35061;47.664;9.166;2024-03-08T09:42:43;100992.23;;;5.18;87.38
18755;BME280;35061;47.664;9.166;2024-03-08T09:45:11;100978.13;;;5.14;86.96
18755;BME280;35061;47.664;9.166;2024-03-08T09:47:41;100970.16;;;5.09;87.20
18755;BME280;35061;47.664;9.166;2024-03-08T09:50:09;100972.31;;;5.05;87.01
18755;BME280;35061;47.664;9.166;2024-03-08T09:52:40;100974.24;;;5.08;87.03
18755;BME280;35061;47.664;9.166;2024-03-08T09:55:09;100970.97;;;5.10;86.77
18755;BME280;35061;47.664;9.166;2024-03-08T09:57:42;100973.00;;;5.09;86.73
18755;BME280;35061;47.664;9.166;2024-03-08T10:00:30;100973.00;;;5.09;86.64
18755;BME280;35061;47.664;9.166;2024-03-08T10:03:02;100956.88;;;5.06;86.45
18755;BME280;35061;47.664;9.166;2024-03-08T10:05:30;100956.88;;;5.06;86.68
18755;BME280;35061;47.664;9.166;2024-03-08T10:08:00;100954.62;;;5.14;86.61
18755;BME280;35061;47.664;9.166;2024-03-08T10:10:28;100946.45;;;5.16;86.39
18755;BME280;35061;47.664;9.166;2024-03-08T10:12:56;100948.84;;;5.17;86.38
18755;BME280;35061;47.664;9.166;2024-03-08T10:15:29;100941.57;;;5.16;86.25
18755;BME280;35061;47.664;9.166;2024-03-08T10:17:57;100936.70;;;5.17;86.46
18755;BME280;35061;47.664;9.166;2024-03-08T10:20:26;100926.92;;;5.18;86.59
18755;BME280;35061;47.664;9.166;2024-03-08T10:22:56;100938.50;;;5.24;86.75
18755;BME280;35061;47.664;9.166;2024-03-08T10:25:36;100942.81;;;5.28;86.78
18755;BME280;35061;47.664;9.166;2024-03-08T10:28:05;100937.95;;;5.29;86.50
18755;BME280;35061;47.664;9.166;2024-03-08T10:30:34;100929.08;;;5.27;86.55
18755;BME280;35061;47.664;9.166;2024-03-08T10:33:02;100932.94;;;5.33;86.48
18755;BME280;35061;47.664;9.166;2024-03-08T10:35:33;100932.02;;;5.36;86.02
18755;BME280;35061;47.664;9.166;2024-03-08T10:38:04;100927.94;;;5.37;86.00
18755;BME280;35061;47.664;9.166;2024-03-08T10:40:38;100928.63;;;5.41;86.02
18755;BME280;35061;47.664;9.166;2024-03-08T10:43:11;100927.71;;;5.44;85.89
18755;BME280;35061;47.664;9.166;2024-03-08T10:45:47;100923.30;;;5.43;85.64
18755;BME280;35061;47.664;9.166;2024-03-08T10:48:29;100925.23;;;5.47;85.32
18755;BME280;35061;47.664;9.166;2024-03-08T10:51:05;100925.65;;;5.45;85.48
18755;BME280;35061;47.664;9.166;2024-03-08T10:53:36;100923.85;;;5.51;85.68
18755;BME280;35061;47.664;9.166;2024-03-08T10:56:07;100912.93;;;5.50;85.44
18755;BME280;35061;47.664;9.166;2024-03-08T10:58:37;100918.62;;;5.50;85.43
18755;BME280;35061;47.664;9.166;2024-03-08T11:01:06;100921.79;;;5.52;85.39
18755;BME280;35061;47.664;9.166;2024-03-08T11:06:23;100916.00;;;5.55;85.15
18755;BME280;35061;47.664;9.166;2024-03-08T11:08:57;100917.57;;;5.56;84.99
18755;BME280;35061;47.664;9.166;2024-03-08T11:11:28;100912.83;;;5.53;84.99
18755;BME280;35061;47.664;9.166;2024-03-08T11:14:02;100903.84;;;5.55;85.25
18755;BME280;35061;47.664;9.166;2024-03-08T11:19:01;100898.15;;;5.68;84.86
18755;BME280;35061;47.664;9.166;2024-03-08T11:21:32;100891.77;;;5.77;84.45
18755;BME280;35061;47.664;9.166;2024-03-08T11:24:13;100886.41;;;5.79;84.20
18755;BME280;35061;47.664;9.166;2024-03-08T11:26:42;100881.41;;;5.83;84.28
18755;BME280;35061;47.664;9.166;2024-03-08T11:32:12;100878.53;;;5.96;83.09
18755;BME280;35061;47.664;9.166;2024-03-08T11:34:48;100878.30;;;6.03;83.27
18755;BME280;35061;47.664;9.166;2024-03-08T11:37:20;100878.20;;;6.07;83.35
18755;BME280;35061;47.664;9.166;2024-03-08T11:39:52;100874.18;;;6.17;83.31
18755;BME280;35061;47.664;9.166;2024-03-08T11:42:20;100863.32;;;6.25;83.32
18755;BME280;35061;47.664;9.166;2024-03-08T11:44:50;100872.18;;;6.27;82.94
18755;BME280;35061;47.664;9.166;2024-03-08T11:47:19;100869.86;;;6.35;82.77
18755;BME280;35061;47.664;9.166;2024-03-08T11:49:47;100866.43;;;6.40;82.56
18755;BME280;35061;47.664;9.166;2024-03-08T11:52:17;100859.37;;;6.45;82.27
18755;BME280;35061;47.664;9.166;2024-03-08T11:54:53;100845.14;;;6.45;81.97
18755;BME280;35061;47.664;9.166;2024-03-08T11:57:24;100849.42;;;6.49;81.60
18755;BME280;35061;47.664;9.166;2024-03-08T11:59:53;100837.00;;;6.56;81.69
18755;BME280;35061;47.664;9.166;2024-03-08T12:02:23;100825.12;;;6.57;81.60
18755;BME280;35061;47.664;9.166;2024-03-08T12:05:01;100824.24;;;6.70;81.52
18755;BME280;35061;47.664;9.166;2024-03-08T12:07:30;100830.13;;;6.76;80.71
18755;BME280;35061;47.664;9.166;2024-03-08T12:10:21;100833.50;;;6.83;80.87
18755;BME280;35061;47.664;9.166;2024-03-08T12:12:52;100828.92;;;6.86;79.59
18755;BME280;35061;47.664;9.166;2024-03-08T12:15:22;100821.53;;;6.98;80.24
18755;BME280;35061;47.664;9.166;2024-03-08T12:17:52;100821.86;;;7.00;80.09
18755;BME280;35061;47.664;9.166;2024-03-08T12:20:22;100813.48;;;6.96;79.80
18755;BME280;35061;47.664;9.166;2024-03-08T12:22:54;100811.59;;;7.03;80.06
18755;BME280;35061;47.664;9.166;2024-03-08T12:25:35;100806.69;;;7.03;79.72
18755;BME280;35061;47.664;9.166;2024-03-08T12:28:10;100794.00;;;6.95;78.65
18755;BME280;35061;47.664;9.166;2024-03-08T12:30:51;100800.47;;;6.95;78.84
18755;BME280;35061;47.664;9.166;2024-03-08T12:33:21;100802.99;;;6.93;79.15
18755;BME280;35061;47.664;9.166;2024-03-08T12:35:54;100791.41;;;6.88;79.29
18755;BME280;35061;47.664;9.166;2024-03-08T12:38:23;100789.39;;;6.88;79.30
18755;BME280;35061;47.664;9.166;2024-03-08T12:41:00;100788.77;;;6.93;79.31
18755;BME280;35061;47.664;9.166;2024-03-08T12:43:29;100785.13;;;6.93;79.01
18755;BME280;35061;47.664;9.166;2024-03-08T12:46:01;100778.50;;;6.96;78.92
18755;BME280;35061;47.664;9.166;2024-03-08T12:48:36;100775.98;;;6.98;78.82
18755;BME280;35061;47.664;9.166;2024-03-08T12:51:08;100769.80;;;7.00;78.13
18755;BME280;35061;47.664;9.166;2024-03-08T12:53:36;100767.74;;;7.00;78.80
18755;BME280;35061;47.664;9.166;2024-03-08T12:56:04;100753.19;;;6.98;78.36
18755;BME280;35061;47.664;9.166;2024-03-08T12:58:35;100758.29;;;7.03;77.65
18755;BME280;35061;47.664;9.166;2024-03-08T13:01:04;100756.20;;;7.04;78.21
18755;BME280;35061;47.664;9.166;2024-03-08T13:03:35;100745.47;;;7.08;78.24
18755;BME280;35061;47.664;9.166;2024-03-08T13:06:05;100730.43;;;7.07;77.25
18755;BME280;35061;47.664;9.166;2024-03-08T13:08:37;100729.02;;;7.12;78.01
18755;BME280;35061;47.664;9.166;2024-03-08T13:11:07;100723.17;;;7.16;77.82
18755;BME280;35061;47.664;9.166;2024-03-08T13:13:35;100713.82;;;7.15;77.42
18755;BME280;35061;47.664;9.166;2024-03-08T13:16:04;100711.63;;;7.19;77.83
18755;BME280;35061;47.664;9.166;2024-03-08T13:18:36;100715.42;;;7.25;77.91